Terminal Aerodrome Forecast
Issued by NWS Charleston, WV

Current Version | Previous Version | Text Only | Print | Product List | Glossary On
Versions: 1 2 3 4 5 6 7 8 9 10 11 12 13 14 15 16 17 18 19 20 21 22 23 24
000
FTUS41 KRLX 220316 AAA
TAFCRW
TAF AMD
KCRW 220316Z 2203/2224 23006KT 6SM -RA OVC040
     FM220400 29005KT P6SM BKN080
     FM220900 30005KT P6SM BKN018
     FM221400 33005KT P6SM SCT022
     FM221800 33005KT P6SM SCT250=

USA.gov is the U.S. government's official web portal to all federal, state and local government web resources and services.